Greenville, SC

4:37 AM EDT on April 30, 2017 (GMT -0400)
Camperdown Parking Deck | | Change Station

Elev 919 ft 34.85 °N, 82.40 °W | Updated 2 seconds ago

Mostly Cloudy
Mostly Cloudy
68.5 °F
Feels Like 68.5 °F
N
2.9
Wind Variable Wind from East
Gusts 6.0 mph

Today
High -- | Low -- °F
--% Chance of Precip.
Yesterday
High -- | Low -- °F
Precip. -- in
Pressure 30.14 in
Visibility 10.0 miles
Clouds Mostly Cloudy 900 ft
Overcast 6000 ft
Dew Point 66 °F
Humidity 91%
Rainfall 0.00 in
Snow Depth Not available.
6:39 AM 8:14 PM
Waxing Crescent, 21% visible
SPECI KGMU 300832Z AUTO 19007KT 10SM BKN009 OVC060 21/18 A3014 RMK AO2 CIG 008V012 T02110183
Pressure 30.14 in
Visibility 10.0 miles
Clouds Mostly Cloudy 900 ft
Overcast 6000 ft
Dew Point 66 °F
Humidity 91%
Rainfall 0.00 in
Snow Depth Not available.
6:39 AM 8:14 PM
Waxing Crescent, 21% visible
SPECI KGMU 300832Z AUTO 19007KT 10SM BKN009 OVC060 21/18 A3014 RMK AO2 CIG 008V012 T02110183

Get Severe Weather Alerts

Thanks for signing up!

Be on the lookout for a verification email in your inbox.

You'll start receiving the daily forecast at 8 AM.

×

10-Day Weather Forecast

Almanac

Astronomy

Apr. 30, 2017 Rise Set
Actual Time
Civil Twilight
Nautical Twilight
Astronomical Twilight
Moon
Length of Visible Light
Length of Day
Tomorrow will be .
, % of the Moon is Illuminated

Today's Extremes

State Highs State Lows

Community

WunderPhotos

WunderBlog® & News

Nearby

Air Quality

  Air Quality AQ Index Pollutant
Not available.

Snow Depth

Station Depth Elevation

Earthquake Activity

City Distance Mag. Time & Date
Minimum magnitude displayed is 2.5.

Coastal Water Temperatures

Place Temperature

Stations

Nearby Weather Stations

Station Location Temp. Windchill Dew Point Humidity Wind Precip. Elev Updated Type
                   

Watches & Warnings

There are currently no watches in effect.